createdAt,value
2019-02-24T00:01:09.648Z,30.50
2019-02-24T00:03:35.976Z,31.30
2019-02-24T00:06:02.223Z,31.40
2019-02-24T00:08:28.608Z,31.00
2019-02-24T00:10:54.831Z,31.20
2019-02-24T00:13:21.062Z,31.00
2019-02-24T00:15:47.275Z,31.20
2019-02-24T00:18:13.426Z,31.20
2019-02-24T00:20:39.763Z,30.80
2019-02-24T00:23:06.150Z,31.20
2019-02-24T00:25:32.561Z,30.50
2019-02-24T00:28:06.752Z,31.90
2019-02-24T00:30:26.878Z,32.20
2019-02-24T00:32:53.091Z,32.60
2019-02-24T00:35:19.365Z,32.80
2019-02-24T00:37:45.633Z,33.30
2019-02-24T00:40:11.974Z,33.00
2019-02-24T00:42:38.270Z,33.00
2019-02-24T00:45:06.177Z,33.40
2019-02-24T00:47:32.430Z,33.70
2019-02-24T00:49:58.693Z,34.10
2019-02-24T00:52:25.027Z,35.10
2019-02-24T00:54:51.264Z,34.70
2019-02-24T00:57:17.509Z,34.70
2019-02-24T00:59:43.765Z,34.90
2019-02-24T01:02:10.012Z,35.40
2019-02-24T01:04:36.238Z,35.30
2019-02-24T01:07:02.470Z,34.70
2019-02-24T01:09:28.825Z,34.80
2019-02-24T01:11:55.143Z,35.70
2019-02-24T01:14:21.357Z,36.30
2019-02-24T01:16:47.624Z,36.00
2019-02-24T01:19:13.854Z,35.40
2019-02-24T01:21:40.028Z,35.00
2019-02-24T01:24:06.378Z,35.20
2019-02-24T01:26:32.574Z,35.10
2019-02-24T01:28:58.744Z,35.30
2019-02-24T01:31:24.866Z,36.00
2019-02-24T01:33:51.047Z,35.90
2019-02-24T01:36:17.347Z,35.80
2019-02-24T01:38:43.515Z,35.40
2019-02-24T01:41:09.797Z,35.20
2019-02-24T01:43:36.117Z,35.60
2019-02-24T01:46:02.453Z,35.80
2019-02-24T01:48:28.791Z,36.10
2019-02-24T01:50:55.039Z,36.40
2019-02-24T01:53:21.335Z,36.00
2019-02-24T01:55:47.668Z,36.30
2019-02-24T01:58:13.992Z,36.60
2019-02-24T02:00:40.233Z,36.60
2019-02-24T02:03:06.480Z,36.60
2019-02-24T02:05:32.823Z,36.80
2019-02-24T02:07:59.560Z,36.70
2019-02-24T02:10:25.931Z,36.90
2019-02-24T02:12:52.072Z,36.70
2019-02-24T02:15:18.201Z,36.60
2019-02-24T02:17:44.450Z,37.80
2019-02-24T02:20:10.732Z,38.00
2019-02-24T02:22:37.257Z,38.40
2019-02-24T02:25:05.916Z,38.60
2019-02-24T02:27:32.263Z,38.40
2019-02-24T02:29:58.415Z,38.70
2019-02-24T02:32:24.752Z,38.80
2019-02-24T02:34:51.133Z,38.80
2019-02-24T02:37:17.387Z,38.40
2019-02-24T02:39:43.590Z,38.10
2019-02-24T02:42:09.823Z,38.10
2019-02-24T02:44:36.193Z,38.10
2019-02-24T02:47:02.432Z,38.70
2019-02-24T02:49:28.669Z,37.90
2019-02-24T02:51:54.836Z,37.80
2019-02-24T02:54:21.077Z,38.50
2019-02-24T02:56:47.386Z,38.10
2019-02-24T02:59:13.627Z,38.40
2019-02-24T03:01:39.871Z,38.10
2019-02-24T03:04:06.234Z,37.60
2019-02-24T03:06:34.423Z,37.50
2019-02-24T03:09:00.748Z,37.60
2019-02-24T03:11:26.996Z,37.20
2019-02-24T03:13:53.350Z,37.10
2019-02-24T03:16:23.098Z,37.30
2019-02-24T03:18:49.453Z,37.60
2019-02-24T03:21:15.699Z,38.30
2019-02-24T03:23:42.038Z,38.40
2019-02-24T03:26:08.202Z,38.40
2019-02-24T03:28:34.434Z,38.50
2019-02-24T03:31:00.705Z,38.70
2019-02-24T03:33:26.926Z,38.70
2019-02-24T03:35:53.208Z,38.70
2019-02-24T03:38:19.414Z,38.80
2019-02-24T03:40:45.704Z,38.60
2019-02-24T03:43:11.957Z,37.70
2019-02-24T03:45:38.207Z,37.40
2019-02-24T03:48:04.539Z,37.30
2019-02-24T03:50:30.843Z,36.20
2019-02-24T03:52:57.191Z,35.30
2019-02-24T03:55:23.431Z,34.80
2019-02-24T03:57:49.709Z,36.60
2019-02-24T04:00:15.822Z,38.50
2019-02-24T04:02:41.944Z,39.50
2019-02-24T04:05:08.334Z,40.20
2019-02-24T04:07:34.608Z,40.60
2019-02-24T04:10:00.928Z,41.60
2019-02-24T04:12:27.159Z,41.90
2019-02-24T04:14:53.319Z,41.80
2019-02-24T04:17:19.468Z,42.10
2019-02-24T04:19:45.805Z,42.10
2019-02-24T04:22:12.033Z,42.20
2019-02-24T04:24:38.304Z,42.20
2019-02-24T04:27:04.648Z,42.40
2019-02-24T04:29:31.012Z,42.60
2019-02-24T04:31:57.206Z,43.30
2019-02-24T04:34:23.339Z,43.60
2019-02-24T04:36:49.585Z,43.40
2019-02-24T04:39:15.919Z,43.40
2019-02-24T04:41:42.170Z,43.50
2019-02-24T04:44:08.465Z,43.60
2019-02-24T04:46:34.680Z,44.00
2019-02-24T04:49:00.821Z,44.00
2019-02-24T04:51:27.017Z,43.80
2019-02-24T04:53:53.172Z,44.20
2019-02-24T04:56:19.407Z,44.40
2019-02-24T04:58:45.655Z,44.50
2019-02-24T05:01:11.883Z,44.10
2019-02-24T05:03:38.024Z,42.70
2019-02-24T05:06:04.277Z,40.70
2019-02-24T05:08:30.572Z,40.00
2019-02-24T05:10:56.886Z,37.70
2019-02-24T05:13:23.308Z,37.20
2019-02-24T05:15:49.590Z,36.40
2019-02-24T05:18:15.802Z,36.00
2019-02-24T05:20:42.059Z,35.90
2019-02-24T05:23:08.392Z,35.80
2019-02-24T05:25:34.730Z,35.60
2019-02-24T05:28:01.091Z,35.30
2019-02-24T05:30:27.221Z,35.60
2019-02-24T05:32:53.515Z,38.80
2019-02-24T05:35:19.745Z,41.20
2019-02-24T05:37:46.060Z,42.50
2019-02-24T05:40:12.386Z,43.80
2019-02-24T05:42:38.566Z,44.70
2019-02-24T05:45:05.114Z,44.90
2019-02-24T05:47:31.348Z,45.10
2019-02-24T05:49:57.524Z,44.90
2019-02-24T05:52:23.803Z,45.30
2019-02-24T05:54:51.849Z,45.70
2019-02-24T05:57:18.125Z,45.70
2019-02-24T05:59:44.407Z,45.10
2019-02-24T06:02:10.735Z,45.90
2019-02-24T06:04:36.876Z,45.60
2019-02-24T06:07:03.116Z,45.20
2019-02-24T06:09:29.365Z,45.20
2019-02-24T06:11:55.738Z,44.90
2019-02-24T06:14:21.999Z,44.50
2019-02-24T06:16:48.333Z,43.10
2019-02-24T06:19:14.530Z,42.40
2019-02-24T06:21:40.712Z,41.70
2019-02-24T06:24:06.867Z,41.90
2019-02-24T06:26:33.004Z,41.90
2019-02-24T06:28:59.288Z,40.20
2019-02-24T06:31:25.509Z,39.90
2019-02-24T06:33:51.843Z,41.00
2019-02-24T06:36:18.007Z,42.90
2019-02-24T06:38:44.166Z,45.10
2019-02-24T06:41:10.428Z,45.50
2019-02-24T06:43:37.769Z,46.30
2019-02-24T06:46:04.009Z,46.40
2019-02-24T06:48:30.240Z,46.70
2019-02-24T06:50:58.417Z,46.70
2019-02-24T06:53:24.657Z,46.30
2019-02-24T06:55:50.978Z,45.70
2019-02-24T06:58:18.473Z,45.10
2019-02-24T07:00:44.971Z,45.80
2019-02-24T07:03:11.278Z,46.30
2019-02-24T07:05:37.619Z,47.10
2019-02-24T07:08:03.994Z,47.70
2019-02-24T07:10:30.275Z,48.20
2019-02-24T07:12:56.503Z,48.40
2019-02-24T07:15:22.912Z,48.20
2019-02-24T07:17:49.062Z,48.10
2019-02-24T07:20:15.464Z,48.40
2019-02-24T07:22:41.927Z,48.40
2019-02-24T07:25:08.267Z,48.70
2019-02-24T07:27:34.608Z,48.80
2019-02-24T07:30:00.860Z,48.40
2019-02-24T07:32:27.125Z,48.30
2019-02-24T07:34:53.367Z,47.00
2019-02-24T07:37:19.690Z,47.30
2019-02-24T07:39:45.970Z,45.40
2019-02-24T07:42:12.221Z,45.00
2019-02-24T07:44:38.461Z,40.80
2019-02-24T07:47:04.655Z,38.60
2019-02-24T07:49:30.935Z,37.90
2019-02-24T07:51:57.179Z,37.30
2019-02-24T07:54:23.494Z,37.20
2019-02-24T07:56:49.894Z,36.60
2019-02-24T07:59:16.189Z,36.80
2019-02-24T08:01:42.682Z,36.60
2019-02-24T08:04:09.023Z,36.30
2019-02-24T08:06:35.251Z,36.20
2019-02-24T08:09:01.582Z,35.60
2019-02-24T08:11:27.889Z,36.00
2019-02-24T08:13:54.141Z,35.10
2019-02-24T08:16:20.351Z,35.30
2019-02-24T08:18:49.512Z,35.10
2019-02-24T08:21:14.584Z,34.90
2019-02-24T08:23:40.949Z,35.10
2019-02-24T08:26:07.211Z,34.70
2019-02-24T08:28:33.514Z,34.90
2019-02-24T08:30:59.968Z,35.30
2019-02-24T08:33:26.133Z,34.80
2019-02-24T08:35:52.480Z,34.30
2019-02-24T08:38:18.811Z,34.90
2019-02-24T08:40:45.055Z,34.80
2019-02-24T08:43:11.179Z,34.30
2019-02-24T08:45:37.388Z,34.70
2019-02-24T08:48:03.503Z,34.30
2019-02-24T08:50:29.723Z,34.10
2019-02-24T08:52:56.113Z,34.60
2019-02-24T08:55:22.385Z,34.50
2019-02-24T08:57:48.708Z,34.00
2019-02-24T09:00:15.184Z,34.40
2019-02-24T09:02:41.571Z,33.40
2019-02-24T09:05:07.937Z,31.60
2019-02-24T09:07:34.227Z,30.80
2019-02-24T09:10:00.596Z,31.10
2019-02-24T09:12:26.853Z,31.00
2019-02-24T09:14:53.079Z,30.80
2019-02-24T09:17:19.434Z,31.10
2019-02-24T09:19:45.701Z,31.10
2019-02-24T09:22:15.279Z,30.50
2019-02-24T09:24:41.771Z,30.80
2019-02-24T09:27:08.006Z,31.00
2019-02-24T09:29:34.288Z,30.70
2019-02-24T09:32:00.435Z,30.00
2019-02-24T09:34:26.772Z,30.30
2019-02-24T09:36:52.995Z,30.00
2019-02-24T09:39:19.168Z,29.80
2019-02-24T09:41:45.504Z,29.60
2019-02-24T09:44:11.781Z,29.70
2019-02-24T09:46:38.041Z,29.50
2019-02-24T09:49:04.253Z,29.50
2019-02-24T09:51:30.556Z,29.10
2019-02-24T09:53:56.704Z,28.70
2019-02-24T09:56:22.951Z,28.50
2019-02-24T09:58:49.207Z,28.50
2019-02-24T10:01:15.460Z,28.30
2019-02-24T10:03:41.740Z,27.60
2019-02-24T10:06:08.028Z,26.70
2019-02-24T10:08:34.402Z,27.10
2019-02-24T10:11:00.540Z,26.00
2019-02-24T10:13:26.821Z,25.70
2019-02-24T10:15:53.062Z,25.90
2019-02-24T10:18:19.430Z,26.20
2019-02-24T10:20:45.719Z,25.70
2019-02-24T10:23:12.019Z,24.60
2019-02-24T10:25:38.274Z,25.30
2019-02-24T10:28:04.968Z,24.90
2019-02-24T10:30:31.281Z,24.50
2019-02-24T10:32:57.538Z,23.70
2019-02-24T10:35:23.907Z,24.10
2019-02-24T10:37:50.242Z,24.90
2019-02-24T10:40:16.716Z,23.20
2019-02-24T10:42:43.137Z,24.00
2019-02-24T10:45:16.126Z,24.10
2019-02-24T10:47:43.247Z,23.90
2019-02-24T10:50:19.570Z,24.00
2019-02-24T10:52:51.327Z,22.90
2019-02-24T10:55:17.790Z,21.70
2019-02-24T10:57:44.012Z,21.40
2019-02-24T11:00:13.056Z,21.60
2019-02-24T11:02:42.802Z,21.30
2019-02-24T11:05:10.041Z,21.00
2019-02-24T11:07:36.320Z,20.80
2019-02-24T11:10:05.137Z,19.80
2019-02-24T11:12:31.490Z,19.60
2019-02-24T11:14:57.729Z,19.30
2019-02-24T11:17:23.976Z,19.40
2019-02-24T11:19:50.209Z,18.70
2019-02-24T11:22:16.529Z,17.80
2019-02-24T11:24:42.921Z,17.70
2019-02-24T11:27:09.147Z,17.90
2019-02-24T11:29:35.483Z,17.00
2019-02-24T11:32:02.489Z,17.30
2019-02-24T11:34:29.095Z,17.10
2019-02-24T11:36:55.298Z,17.30
2019-02-24T11:39:21.569Z,16.60
2019-02-24T11:41:47.935Z,17.20
2019-02-24T11:44:14.320Z,17.70
2019-02-24T11:46:40.773Z,17.50
2019-02-24T11:49:07.112Z,18.40
2019-02-24T11:51:33.242Z,18.20
2019-02-24T11:53:59.716Z,18.00
2019-02-24T11:56:28.944Z,18.40
2019-02-24T11:58:57.914Z,18.90
2019-02-24T12:01:47.117Z,18.60
2019-02-24T12:04:06.731Z,18.80
2019-02-24T12:06:33.989Z,18.80
2019-02-24T12:09:05.148Z,19.40
2019-02-24T12:11:34.468Z,18.90
2019-02-24T12:14:00.924Z,19.20
2019-02-24T12:16:27.055Z,18.00
2019-02-24T12:18:53.277Z,18.30
2019-02-24T12:21:19.514Z,18.70
2019-02-24T12:23:45.868Z,18.60
2019-02-24T12:26:12.070Z,17.80
2019-02-24T12:28:38.290Z,17.80
2019-02-24T12:31:04.686Z,18.00
2019-02-24T12:33:30.915Z,17.80
2019-02-24T12:35:57.270Z,16.90
2019-02-24T12:38:23.541Z,17.00
2019-02-24T12:40:49.768Z,17.60
2019-02-24T12:43:15.947Z,17.10
2019-02-24T12:45:42.163Z,15.80
2019-02-24T12:48:08.450Z,15.60
2019-02-24T12:50:34.669Z,15.80
2019-02-24T12:53:00.923Z,15.90
2019-02-24T12:55:27.265Z,16.40
2019-02-24T12:57:53.499Z,16.80
2019-02-24T13:00:21.767Z,16.80
2019-02-24T13:02:48.024Z,17.30
2019-02-24T13:05:14.515Z,17.40
2019-02-24T13:07:40.649Z,16.80
2019-02-24T13:10:09.919Z,17.00
2019-02-24T13:12:36.297Z,17.70
2019-02-24T13:15:03.770Z,17.20
2019-02-24T13:17:30.066Z,16.90
2019-02-24T13:19:56.328Z,17.70
2019-02-24T13:22:22.561Z,17.80
2019-02-24T13:24:49.103Z,17.20
2019-02-24T13:27:15.355Z,16.80
2019-02-24T13:29:41.724Z,17.00
2019-02-24T13:32:14.715Z,17.30
2019-02-24T13:34:36.605Z,17.60
2019-02-24T13:37:02.952Z,17.60
2019-02-24T13:39:29.274Z,17.60
2019-02-24T13:41:55.636Z,17.40
2019-02-24T13:44:21.859Z,17.30
2019-02-24T13:46:48.583Z,16.50
2019-02-24T13:49:14.869Z,16.90
2019-02-24T13:51:41.183Z,17.60
2019-02-24T13:54:07.333Z,17.80
2019-02-24T13:56:33.659Z,16.60
2019-02-24T13:58:59.938Z,16.50
2019-02-24T14:01:26.276Z,16.60
2019-02-24T14:03:52.523Z,16.00
2019-02-24T14:06:20.393Z,16.40
2019-02-24T14:08:46.816Z,16.70
2019-02-24T14:11:13.008Z,16.10
2019-02-24T14:13:39.255Z,16.10
2019-02-24T14:16:05.387Z,16.10
2019-02-24T14:18:31.679Z,15.70
2019-02-24T14:20:57.917Z,16.30
2019-02-24T14:23:24.248Z,15.80
2019-02-24T14:25:50.762Z,14.50
2019-02-24T14:28:17.268Z,13.30
2019-02-24T14:30:43.591Z,12.50
2019-02-24T14:33:09.743Z,13.10
2019-02-24T14:35:35.966Z,13.00
2019-02-24T14:38:02.221Z,13.10
2019-02-24T14:40:28.479Z,13.10
2019-02-24T14:42:54.697Z,13.30
2019-02-24T14:45:23.930Z,12.90
2019-02-24T14:47:50.221Z,13.50
2019-02-24T14:50:16.640Z,13.40
2019-02-24T14:52:42.925Z,13.50
2019-02-24T14:55:11.869Z,12.80
2019-02-24T14:57:38.108Z,12.90
2019-02-24T15:00:10.642Z,13.00
2019-02-24T15:02:42.362Z,13.00
2019-02-24T15:05:08.229Z,12.40
2019-02-24T15:07:34.638Z,12.50
2019-02-24T15:10:00.957Z,12.40
2019-02-24T15:12:27.221Z,13.00
2019-02-24T15:14:53.498Z,13.70
2019-02-24T15:17:19.680Z,13.80
2019-02-24T15:19:46.055Z,14.20
2019-02-24T15:22:12.558Z,13.90
2019-02-24T15:24:38.994Z,13.60
2019-02-24T15:27:05.259Z,14.20
2019-02-24T15:29:31.497Z,14.80
2019-02-24T15:31:57.828Z,14.80
2019-02-24T15:34:24.074Z,15.10
2019-02-24T15:36:50.333Z,15.20
2019-02-24T15:39:16.517Z,15.50
2019-02-24T15:41:42.759Z,15.60
2019-02-24T15:44:10.185Z,16.20
2019-02-24T15:46:40.638Z,16.50
2019-02-24T15:49:07.278Z,16.30
2019-02-24T15:51:33.722Z,16.60
2019-02-24T15:54:00.205Z,16.90
2019-02-24T15:56:26.427Z,16.80
2019-02-24T15:58:53.153Z,17.00
2019-02-24T16:01:19.680Z,17.50
2019-02-24T16:03:46.047Z,17.40
2019-02-24T16:06:12.569Z,17.50
2019-02-24T16:08:38.865Z,17.60
2019-02-24T16:11:05.410Z,17.50
2019-02-24T16:13:32.678Z,17.50
2019-02-24T16:15:59.046Z,17.60
2019-02-24T16:18:25.440Z,17.70
2019-02-24T16:20:51.940Z,17.40
2019-02-24T16:23:18.245Z,17.40
2019-02-24T16:25:45.656Z,17.40
2019-02-24T16:28:11.985Z,17.30
2019-02-24T16:30:43.832Z,17.50
2019-02-24T16:33:10.933Z,17.30
2019-02-24T16:35:39.468Z,16.80
2019-02-24T16:38:10.211Z,16.70
2019-02-24T16:40:36.412Z,16.90
2019-02-24T16:43:02.975Z,17.10
2019-02-24T16:45:29.760Z,16.80
2019-02-24T16:47:58.395Z,17.10
2019-02-24T16:50:24.982Z,17.00
2019-02-24T16:52:51.901Z,17.50
2019-02-24T16:55:18.763Z,17.60
2019-02-24T16:57:56.107Z,17.80
2019-02-24T17:00:26.991Z,17.90
2019-02-24T17:02:53.135Z,17.90
2019-02-24T17:05:20.605Z,17.70
2019-02-24T17:07:49.727Z,17.90
2019-02-24T17:10:26.505Z,18.00
2019-02-24T17:12:53.802Z,18.20
2019-02-24T17:15:20.687Z,18.50
2019-02-24T17:17:50.430Z,18.90
2019-02-24T17:20:21.128Z,19.50
2019-02-24T17:22:47.515Z,19.20
2019-02-24T17:25:13.948Z,19.50
2019-02-24T17:27:40.237Z,20.30
2019-02-24T17:30:16.040Z,21.20
2019-02-24T17:32:42.375Z,21.10
2019-02-24T17:35:10.849Z,21.40
2019-02-24T17:37:39.878Z,21.20
2019-02-24T17:40:13.928Z,20.70
2019-02-24T17:42:40.693Z,20.00
2019-02-24T18:54:22.895Z,24.40
2019-02-24T18:56:49.148Z,24.10
2019-02-24T18:59:15.375Z,24.10
2019-02-24T19:01:41.644Z,24.00
2019-02-24T19:04:08.002Z,24.40
2019-02-24T19:06:39.189Z,24.80
2019-02-24T19:09:03.698Z,25.00
2019-02-24T19:11:29.926Z,25.60
2019-02-24T19:13:56.308Z,25.30
2019-02-24T19:16:22.510Z,24.90
2019-02-24T19:18:48.650Z,23.70
2019-02-24T19:21:15.181Z,22.70
2019-02-24T19:23:41.524Z,21.20
2019-02-24T19:26:08.167Z,19.50
2019-02-24T19:28:37.702Z,19.30
2019-02-24T19:31:04.062Z,20.20
2019-02-24T19:33:33.225Z,21.40
2019-02-24T19:35:59.518Z,24.50
2019-02-24T19:38:26.785Z,26.70
2019-02-24T19:40:53.112Z,27.80
2019-02-24T19:43:19.360Z,27.60
2019-02-24T19:45:45.611Z,26.90
2019-02-24T19:48:12.660Z,26.30
2019-02-24T19:50:38.929Z,25.60
2019-02-24T19:53:12.897Z,23.80
2019-02-24T19:55:39.426Z,23.30
2019-02-24T19:58:11.217Z,23.60
2019-02-24T20:00:38.436Z,23.90
2019-02-24T20:03:07.901Z,25.10
2019-02-24T20:05:43.501Z,27.50
2019-02-24T20:08:10.665Z,28.60
2019-02-24T20:10:37.166Z,28.50
2019-02-24T20:13:04.244Z,28.60
2019-02-24T20:15:33.247Z,28.40
2019-02-24T20:18:01.022Z,28.30
2019-02-24T20:20:27.315Z,28.20
2019-02-24T20:22:53.662Z,28.00
2019-02-24T20:25:23.168Z,27.90
2019-02-24T20:27:58.448Z,28.80
2019-02-24T20:30:27.777Z,28.10
2019-02-24T20:32:59.911Z,28.10
2019-02-24T20:35:26.309Z,28.00
2019-02-24T20:37:52.793Z,27.50
2019-02-24T20:40:19.930Z,27.50
2019-02-24T20:42:47.169Z,27.10
2019-02-24T20:45:20.181Z,26.80
2019-02-24T20:47:51.600Z,26.60
2019-02-24T20:50:31.994Z,27.50
2019-02-24T20:52:58.378Z,27.50
2019-02-24T20:55:27.385Z,26.40
2019-02-24T20:57:54.367Z,26.40
2019-02-24T21:00:26.334Z,25.70
2019-02-24T21:02:52.797Z,26.00
2019-02-24T21:05:21.150Z,27.30
2019-02-24T21:07:48.539Z,29.00
2019-02-24T21:10:18.818Z,29.90
2019-02-24T21:12:45.509Z,30.30
2019-02-24T21:15:13.533Z,31.40
2019-02-24T21:17:40.038Z,31.60
2019-02-24T21:20:09.786Z,31.20
2019-02-24T21:22:36.811Z,31.00
2019-02-24T21:25:05.908Z,31.20
2019-02-24T21:27:32.378Z,31.60
2019-02-24T21:29:58.656Z,31.60
2019-02-24T21:32:25.002Z,31.70
2019-02-24T21:34:52.246Z,32.30
2019-02-24T21:37:19.237Z,32.70
2019-02-24T21:39:51.295Z,32.70
2019-02-24T21:42:17.761Z,32.30
2019-02-24T21:44:45.334Z,32.20
2019-02-24T21:47:22.354Z,32.20
2019-02-24T21:49:52.118Z,32.00
2019-02-24T21:52:21.919Z,31.70
2019-02-24T21:54:48.611Z,32.30
2019-02-24T21:57:15.731Z,31.80
2019-02-24T21:59:42.232Z,31.50
2019-02-24T22:02:09.274Z,31.90
2019-02-24T22:04:35.693Z,32.10
2019-02-24T22:07:02.823Z,32.70
2019-02-24T22:09:30.084Z,32.70
2019-02-24T22:11:56.950Z,32.70
2019-02-24T22:14:23.803Z,32.90
2019-02-24T22:16:50.933Z,32.80
2019-02-24T22:19:22.354Z,32.70
2019-02-24T22:21:49.402Z,32.70
2019-02-24T22:24:15.814Z,32.40
2019-02-24T22:26:42.159Z,32.40
2019-02-24T22:29:08.436Z,32.40
2019-02-24T22:31:34.942Z,32.50
2019-02-24T22:34:01.286Z,32.80
2019-02-24T22:36:27.500Z,33.20
2019-02-24T22:38:53.868Z,33.30
2019-02-24T22:41:20.098Z,33.20
2019-02-24T22:43:46.441Z,33.70
2019-02-24T22:46:12.811Z,33.90
2019-02-24T22:48:39.245Z,33.60
2019-02-24T22:51:05.432Z,33.00
2019-02-24T22:53:31.677Z,33.10
2019-02-24T22:55:58.165Z,33.30
2019-02-24T22:58:24.408Z,33.60
2019-02-24T23:00:58.725Z,33.80
2019-02-24T23:03:28.393Z,33.30
2019-02-24T23:05:54.931Z,33.40
2019-02-24T23:08:23.054Z,33.10
2019-02-24T23:10:52.081Z,33.20
2019-02-24T23:13:23.528Z,33.10
2019-02-24T23:15:49.850Z,33.70
2019-02-24T23:18:19.315Z,33.60
2019-02-24T23:20:45.647Z,33.70
2019-02-24T23:23:12.388Z,33.30
2019-02-24T23:25:40.451Z,33.60
2019-02-24T23:28:07.115Z,34.40
2019-02-24T23:30:35.950Z,34.00
2019-02-24T23:33:02.515Z,34.10
2019-02-24T23:35:30.569Z,34.80
2019-02-24T23:37:56.969Z,35.30
2019-02-24T23:40:23.176Z,35.70
2019-02-24T23:42:49.395Z,35.80
2019-02-24T23:45:16.288Z,36.20
2019-02-24T23:47:45.796Z,36.10
2019-02-24T23:50:12.237Z,36.10
2019-02-24T23:52:38.656Z,36.20
2019-02-24T23:55:06.157Z,36.10
2019-02-24T23:57:38.767Z,36.10
